Česky Dansk Deutsch English Español Suomi Français Magyar Italiano Nederlands norsk Polski Português svenska Türkçe

 

Het Weer

Dalaman (Turkije)

01:20, 19 augustus 2016 (GMT)

NWNNE
WE
SWSSE
Home            
Dalaman Rhodes / Maritsa Rhodes Airport Bodrum Milas Airport Bodrum Cardak Aydin Kos Airport Antalya Suleyman Demirel Isparta Samos Airport Karpathos Airport Usak Izmir / Adnan Menderes Izmir / Cigli Izmir \ Kaklic Akhisar Afyon Chios Airport Santorini Island Cyclades Islands, Naxos Airport Mikonos Island, Mikonos Airport

Om een weerknop op uw website of weblog te plaatsen, copieer onderstaande code en plak die in uw pagina. In het eerste vakje staat HTML-code, in het tweede vakje UBB-code.


Add to Google

Details

Wind speed:2 bf, 5 kn, 2.6 m/s, 5.8 miles/h, 9.3 km/h
Wind direction:NE, 040°
Visibility:Greater than 10000 m, 10 km, 32800 ft, 6.2 miles
Clouds:CAVOC
Temperature:21°C, 70°F
Dew-point:15°C, 59°F
Atmospheric pressure:1005 hPa, 753.8 mmHg, 29.68 inHg, 0.992 atm
Relative humidity:68.6 %
METAR:LTBS 190120Z 04005KT CAVOK 21/15 Q1005 NOSIG

Snelkoppelingen

Actuele weersinformatie van de hele wereld. Voeg locaties toe met het plus (+) symbool. Deze snelkoppelingen kunnen worden toegevoegd aan Google.

Lid van de Technetium groep

website free tracking
StatCounter NetStat W3C Validator

05-10-2022 09:16:14
astro.technetium.be money.technetium.be phote.technetium.be tafeltennistafel.technetium.be www.ligfiets.net